ADDS METAR Data INFO
IDs: Format: Raw Decoded Include TAF

Data at: 0309 UTC 20 Jul 2018

KJQF 200150Z 00000KT 10SM BKN080 27/16 A3006
KJQF 200050Z 00000KT 10SM BKN080 28/15 A3005
KJQF 192350Z 00000KT 10SM BKN080 29/15 A3005
KJQF 192250Z 00000KT 10SM SCT080 30/14 A3003
KJQF 192155Z 00000KT 10SM SCT080 30/14 A3004
KJQF 192055Z 05005KT 10SM SKC 30/15 A3005
KJQF 191950Z 05005KT 10SM SKC 31/14 A3006
KJQF 191850Z 07003KT 10SM SKC 30/14 A3008
KJQF 191750Z 00000KT 10SM SKC 30/14 A3009
KJQF 191655Z 09005KT 10SM SKC 29/14 A3010
KJQF 191555Z 11005KT 10SM SKC 28/15 A3011
KJQF 191455Z 08003KT 10SM SKC 27/15 A3011
KJQF 191352Z 00000KT 10SM SKC 26/16 A3011
KJQF 191252Z 00000KT 10SM SCT050 24/16 A3010
KJQF 191152Z 00000KT 10SM SCT055 24/16 A3009
KJQF 191052Z 00000KT 10SM SCT100 22/16 A3007
KJQF 191045Z AUTO 00000KT 10SM SCT100 22/16 A3007 RMK AO2
KJQF 191040Z AUTO 00000KT 10SM SCT100 22/16 A3007 RMK AO2
KJQF 191015Z AUTO 00000KT 10SM SCT055 SCT100 22/16 A3006 RMK AO2
KJQF 191000Z AUTO 00000KT 10SM SCT055 SCT100 22/16 A3005 RMK AO2
KJQF 190935Z AUTO 00000KT 7SM CLR 22/17 A3004 RMK AO2
KJQF 190915Z AUTO 00000KT 7SM CLR 22/17 A3004 RMK AO2
KJQF 190855Z AUTO 00000KT 5SM HZ CLR 21/17 A3004 RMK AO2
KJQF 190835Z AUTO 00000KT 10SM CLR 22/17 A3003 RMK AO2
KJQF 190820Z AUTO 00000KT 10SM SCT060 22/17 A3003 RMK AO2
KJQF 190800Z AUTO 00000KT 10SM SCT060 23/17 A3003 RMK AO2
KJQF 190735Z AUTO 00000KT 10SM CLR 23/17 A3003 RMK AO2
KJQF 190715Z AUTO 00000KT 10SM CLR 23/17 A3003 RMK AO2
KJQF 190655Z AUTO 00000KT 7SM CLR 23/17 A3003 RMK AO2
KJQF 190640Z AUTO 00000KT 10SM SCT095 23/17 A3004 RMK AO2
KJQF 190620Z AUTO 00000KT 10SM SCT095 24/18 A3004 RMK AO2
KJQF 190600Z AUTO 00000KT 10SM BKN095 25/18 A3004 RMK AO2
KJQF 190540Z AUTO 00000KT 10SM BKN095 25/18 A3004 RMK AO2
KJQF 190515Z AUTO 00000KT 7SM SCT095 25/18 A3004 RMK AO2
KJQF 190455Z AUTO 00000KT 10SM SCT055 SCT075 BKN095 25/18 A3004 RMK AO2
KJQF 190435Z AUTO 00000KT 10SM SCT055 BKN085 25/18 A3004 RMK AO2
KJQF 190415Z AUTO 00000KT 10SM BKN085 25/18 A3003 RMK AO2
KJQF 190355Z AUTO 05003KT 7SM BKN085 26/18 A3003 RMK AO2
KJQF 190335Z AUTO 00000KT 10SM BKN085 26/18 A3002 RMK AO2
KJQF 190315Z AUTO 00000KT 10SM SCT085 26/18 A3001 RMK AO2
KJQF 190150Z 00000KT 10SM SKC 27/16 A2999
KJQF 190055Z 00000KT 10SM SKC 26/16 A2998
KJQF 182350Z 05004KT 10SM SKC 31/13 A2996
KJQF 182250Z 03003KT 10SM SKC 32/14 A2995
KJQF 182159Z 05003KT 10SM SKC 32/15 A2995
KJQF 182059Z 03007KT 10SM SKC 32/15 A2995
KJQF 181950Z 36006KT 10SM SKC 33/18 A2996
KJQF 181855Z 08003KT 10SM SCT048 SCT060 31/18 A2998
KJQF 181750Z 32007KT 10SM SCT048 32/18 A2999
KJQF 181650Z 04007KT 10SM SCT042 31/18 A3002
KJQF 181559Z 01007KT 10SM SKC 32/18 A3003